sensor_id;sensor_type;location;lat;lon;timestamp;temperature;humidity
18408;DHT22;9330;52.210;21.174;2022-11-06T00:01:17;8.90;99.90
18408;DHT22;9330;52.210;21.174;2022-11-06T00:03:43;9.00;99.90
18408;DHT22;9330;52.210;21.174;2022-11-06T00:06:12;8.90;99.90
18408;DHT22;9330;52.210;21.174;2022-11-06T00:08:58;8.90;99.90
18408;DHT22;9330;52.210;21.174;2022-11-06T00:11:26;8.90;99.90
18408;DHT22;9330;52.210;21.174;2022-11-06T00:13:54;8.90;99.90
18408;DHT22;9330;52.210;21.174;2022-11-06T00:16:22;8.90;99.90
18408;DHT22;9330;52.210;21.174;2022-11-06T00:18:49;8.90;99.90
18408;DHT22;9330;52.210;21.174;2022-11-06T00:21:18;8.80;99.90
18408;DHT22;9330;52.210;21.174;2022-11-06T00:23:46;8.80;99.90
18408;DHT22;9330;52.210;21.174;2022-11-06T00:26:14;8.80;99.90
18408;DHT22;9330;52.210;21.174;2022-11-06T00:28:43;8.90;99.90
18408;DHT22;9330;52.210;21.174;2022-11-06T00:31:13;8.80;99.90
18408;DHT22;9330;52.210;21.174;2022-11-06T00:33:41;8.80;99.90
18408;DHT22;9330;52.210;21.174;2022-11-06T00:36:13;8.80;99.90
18408;DHT22;9330;52.210;21.174;2022-11-06T00:38:40;8.80;99.90
18408;DHT22;9330;52.210;21.174;2022-11-06T00:41:09;8.80;99.90
18408;DHT22;9330;52.210;21.174;2022-11-06T00:43:36;8.80;99.90
18408;DHT22;9330;52.210;21.174;2022-11-06T00:46:07;8.80;99.90
18408;DHT22;9330;52.210;21.174;2022-11-06T00:48:34;8.70;99.90
18408;DHT22;9330;52.210;21.174;2022-11-06T00:51:01;8.70;99.90
18408;DHT22;9330;52.210;21.174;2022-11-06T00:53:28;8.70;99.90
18408;DHT22;9330;52.210;21.174;2022-11-06T00:56:03;8.70;99.90
18408;DHT22;9330;52.210;21.174;2022-11-06T00:58:30;8.70;99.90
18408;DHT22;9330;52.210;21.174;2022-11-06T01:01:06;8.60;99.90
18408;DHT22;9330;52.210;21.174;2022-11-06T01:03:33;8.60;99.90
18408;DHT22;9330;52.210;21.174;2022-11-06T01:06:05;8.60;99.90
18408;DHT22;9330;52.210;21.174;2022-11-06T01:08:32;8.60;99.90
18408;DHT22;9330;52.210;21.174;2022-11-06T01:11:05;8.60;99.90
18408;DHT22;9330;52.210;21.174;2022-11-06T01:13:33;8.60;99.90
18408;DHT22;9330;52.210;21.174;2022-11-06T01:16:00;8.60;99.90
18408;DHT22;9330;52.210;21.174;2022-11-06T01:18:28;8.50;99.90
18408;DHT22;9330;52.210;21.174;2022-11-06T01:20:55;8.60;99.90
18408;DHT22;9330;52.210;21.174;2022-11-06T01:23:22;8.50;99.90
18408;DHT22;9330;52.210;21.174;2022-11-06T01:25:56;8.60;99.90
18408;DHT22;9330;52.210;21.174;2022-11-06T01:28:23;8.50;99.90
18408;DHT22;9330;52.210;21.174;2022-11-06T01:30:50;8.50;99.90
18408;DHT22;9330;52.210;21.174;2022-11-06T01:33:17;8.60;99.90
18408;DHT22;9330;52.210;21.174;2022-11-06T01:35:46;8.50;99.90
18408;DHT22;9330;52.210;21.174;2022-11-06T01:38:14;8.50;99.90
18408;DHT22;9330;52.210;21.174;2022-11-06T01:40:42;8.50;99.90
18408;DHT22;9330;52.210;21.174;2022-11-06T01:43:14;8.50;99.90
18408;DHT22;9330;52.210;21.174;2022-11-06T01:45:43;8.40;99.90
18408;DHT22;9330;52.210;21.174;2022-11-06T01:48:11;8.40;99.90
18408;DHT22;9330;52.210;21.174;2022-11-06T01:50:40;8.40;99.90
18408;DHT22;9330;52.210;21.174;2022-11-06T01:53:10;8.40;99.90
18408;DHT22;9330;52.210;21.174;2022-11-06T01:55:39;8.30;99.90
18408;DHT22;9330;52.210;21.174;2022-11-06T01:58:09;8.30;99.90
18408;DHT22;9330;52.210;21.174;2022-11-06T02:00:37;8.30;99.90
18408;DHT22;9330;52.210;21.174;2022-11-06T02:03:04;8.30;99.90
18408;DHT22;9330;52.210;21.174;2022-11-06T02:05:32;8.30;99.90
18408;DHT22;9330;52.210;21.174;2022-11-06T02:08:00;8.30;99.90
18408;DHT22;9330;52.210;21.174;2022-11-06T02:10:28;8.30;99.90
18408;DHT22;9330;52.210;21.174;2022-11-06T02:13:16;8.30;99.90
18408;DHT22;9330;52.210;21.174;2022-11-06T02:15:48;8.20;99.90
18408;DHT22;9330;52.210;21.174;2022-11-06T02:18:38;8.20;99.90
18408;DHT22;9330;52.210;21.174;2022-11-06T02:21:24;8.20;99.90
18408;DHT22;9330;52.210;21.174;2022-11-06T02:27:00;8.10;99.90
18408;DHT22;9330;52.210;21.174;2022-11-06T02:29:32;8.10;99.90
18408;DHT22;9330;52.210;21.174;2022-11-06T02:32:05;8.10;99.90
18408;DHT22;9330;52.210;21.174;2022-11-06T02:34:35;8.10;99.90
18408;DHT22;9330;52.210;21.174;2022-11-06T02:37:06;8.00;99.90
18408;DHT22;9330;52.210;21.174;2022-11-06T02:39:38;8.00;99.90
18408;DHT22;9330;52.210;21.174;2022-11-06T02:42:09;7.90;99.90
18408;DHT22;9330;52.210;21.174;2022-11-06T02:44:39;7.90;99.90
18408;DHT22;9330;52.210;21.174;2022-11-06T02:47:09;7.80;99.90
18408;DHT22;9330;52.210;21.174;2022-11-06T02:49:39;7.80;99.90
18408;DHT22;9330;52.210;21.174;2022-11-06T02:52:10;7.80;99.90
18408;DHT22;9330;52.210;21.174;2022-11-06T02:54:42;7.70;99.90
18408;DHT22;9330;52.210;21.174;2022-11-06T02:57:12;7.70;99.90
18408;DHT22;9330;52.210;21.174;2022-11-06T02:59:46;7.70;99.90
18408;DHT22;9330;52.210;21.174;2022-11-06T03:02:19;7.70;99.90
18408;DHT22;9330;52.210;21.174;2022-11-06T03:04:51;7.70;99.90
18408;DHT22;9330;52.210;21.174;2022-11-06T03:07:22;7.60;99.90
18408;DHT22;9330;52.210;21.174;2022-11-06T03:09:53;7.60;99.90
18408;DHT22;9330;52.210;21.174;2022-11-06T03:12:27;7.50;99.90
18408;DHT22;9330;52.210;21.174;2022-11-06T03:14:57;7.50;99.90
18408;DHT22;9330;52.210;21.174;2022-11-06T03:17:33;7.50;99.90
18408;DHT22;9330;52.210;21.174;2022-11-06T03:20:15;7.50;99.90
18408;DHT22;9330;52.210;21.174;2022-11-06T03:22:47;7.50;99.90
18408;DHT22;9330;52.210;21.174;2022-11-06T03:25:20;7.50;99.90
18408;DHT22;9330;52.210;21.174;2022-11-06T03:27:54;7.50;99.90
18408;DHT22;9330;52.210;21.174;2022-11-06T03:30:24;7.50;99.90
18408;DHT22;9330;52.210;21.174;2022-11-06T03:32:54;7.40;99.90
18408;DHT22;9330;52.210;21.174;2022-11-06T03:35:25;7.40;99.90
18408;DHT22;9330;52.210;21.174;2022-11-06T03:37:57;7.30;99.90
18408;DHT22;9330;52.210;21.174;2022-11-06T03:40:27;7.30;99.90
18408;DHT22;9330;52.210;21.174;2022-11-06T03:42:59;7.30;99.90
18408;DHT22;9330;52.210;21.174;2022-11-06T03:45:26;7.20;99.90
18408;DHT22;9330;52.210;21.174;2022-11-06T03:47:58;7.30;99.90
18408;DHT22;9330;52.210;21.174;2022-11-06T03:50:30;7.20;99.90
18408;DHT22;9330;52.210;21.174;2022-11-06T03:53:04;7.20;99.90
18408;DHT22;9330;52.210;21.174;2022-11-06T03:55:35;7.20;99.90
18408;DHT22;9330;52.210;21.174;2022-11-06T03:58:09;7.20;99.90
18408;DHT22;9330;52.210;21.174;2022-11-06T04:00:38;7.10;99.90
18408;DHT22;9330;52.210;21.174;2022-11-06T04:03:12;7.00;99.90
18408;DHT22;9330;52.210;21.174;2022-11-06T04:05:44;7.00;99.90
18408;DHT22;9330;52.210;21.174;2022-11-06T04:08:15;7.00;99.90
18408;DHT22;9330;52.210;21.174;2022-11-06T04:11:02;6.90;99.90
18408;DHT22;9330;52.210;21.174;2022-11-06T04:13:51;6.80;99.90
18408;DHT22;9330;52.210;21.174;2022-11-06T04:16:30;6.80;99.90
18408;DHT22;9330;52.210;21.174;2022-11-06T04:18:58;6.70;99.90
18408;DHT22;9330;52.210;21.174;2022-11-06T04:21:40;6.70;99.90
18408;DHT22;9330;52.210;21.174;2022-11-06T04:24:15;6.60;99.90
18408;DHT22;9330;52.210;21.174;2022-11-06T04:27:19;6.50;99.90
18408;DHT22;9330;52.210;21.174;2022-11-06T04:30:02;6.50;99.90
18408;DHT22;9330;52.210;21.174;2022-11-06T04:32:46;6.40;99.90
18408;DHT22;9330;52.210;21.174;2022-11-06T04:35:22;6.30;99.90
18408;DHT22;9330;52.210;21.174;2022-11-06T04:37:58;6.30;99.90
18408;DHT22;9330;52.210;21.174;2022-11-06T04:40:32;6.20;99.90
18408;DHT22;9330;52.210;21.174;2022-11-06T04:43:06;6.10;99.90
18408;DHT22;9330;52.210;21.174;2022-11-06T04:45:37;6.00;99.90
18408;DHT22;9330;52.210;21.174;2022-11-06T04:48:06;6.00;99.90
18408;DHT22;9330;52.210;21.174;2022-11-06T04:50:37;5.90;99.90
18408;DHT22;9330;52.210;21.174;2022-11-06T04:53:06;5.80;99.90
18408;DHT22;9330;52.210;21.174;2022-11-06T04:55:38;5.80;99.90
18408;DHT22;9330;52.210;21.174;2022-11-06T04:58:11;5.70;99.90
18408;DHT22;9330;52.210;21.174;2022-11-06T05:00:43;5.70;99.90
18408;DHT22;9330;52.210;21.174;2022-11-06T05:03:11;5.60;99.90
18408;DHT22;9330;52.210;21.174;2022-11-06T05:05:38;5.60;99.90
18408;DHT22;9330;52.210;21.174;2022-11-06T05:08:05;5.60;99.90
18408;DHT22;9330;52.210;21.174;2022-11-06T05:10:32;5.50;99.90
18408;DHT22;9330;52.210;21.174;2022-11-06T05:12:59;5.40;99.90
18408;DHT22;9330;52.210;21.174;2022-11-06T05:15:26;5.30;99.90
18408;DHT22;9330;52.210;21.174;2022-11-06T05:17:56;5.30;99.90
18408;DHT22;9330;52.210;21.174;2022-11-06T05:20:23;5.20;99.90
18408;DHT22;9330;52.210;21.174;2022-11-06T05:22:50;5.20;99.90
18408;DHT22;9330;52.210;21.174;2022-11-06T05:25:26;5.20;99.90
18408;DHT22;9330;52.210;21.174;2022-11-06T05:27:54;5.10;99.90
18408;DHT22;9330;52.210;21.174;2022-11-06T05:30:21;5.10;99.90
18408;DHT22;9330;52.210;21.174;2022-11-06T05:32:48;5.00;99.90
18408;DHT22;9330;52.210;21.174;2022-11-06T05:35:17;5.00;99.90
18408;DHT22;9330;52.210;21.174;2022-11-06T05:37:44;4.90;99.90
18408;DHT22;9330;52.210;21.174;2022-11-06T05:40:11;4.80;99.90
18408;DHT22;9330;52.210;21.174;2022-11-06T05:42:39;4.80;99.90
18408;DHT22;9330;52.210;21.174;2022-11-06T05:45:06;4.70;99.90
18408;DHT22;9330;52.210;21.174;2022-11-06T05:47:33;4.70;99.90
18408;DHT22;9330;52.210;21.174;2022-11-06T05:50:00;4.70;99.90
18408;DHT22;9330;52.210;21.174;2022-11-06T05:52:29;4.60;99.90
18408;DHT22;9330;52.210;21.174;2022-11-06T05:54:56;4.70;99.90
18408;DHT22;9330;52.210;21.174;2022-11-06T05:57:22;4.60;99.90
18408;DHT22;9330;52.210;21.174;2022-11-06T05:59:49;4.50;99.90
18408;DHT22;9330;52.210;21.174;2022-11-06T06:02:16;4.60;99.90
18408;DHT22;9330;52.210;21.174;2022-11-06T06:04:43;4.50;99.90
18408;DHT22;9330;52.210;21.174;2022-11-06T06:07:10;4.60;99.90
18408;DHT22;9330;52.210;21.174;2022-11-06T06:09:38;4.50;99.90
18408;DHT22;9330;52.210;21.174;2022-11-06T06:12:05;4.40;99.90
18408;DHT22;9330;52.210;21.174;2022-11-06T06:14:33;4.50;99.90
18408;DHT22;9330;52.210;21.174;2022-11-06T06:17:00;4.50;99.90
18408;DHT22;9330;52.210;21.174;2022-11-06T06:19:27;4.50;99.90
18408;DHT22;9330;52.210;21.174;2022-11-06T06:21:54;4.50;99.90
18408;DHT22;9330;52.210;21.174;2022-11-06T06:24:21;4.60;99.90
18408;DHT22;9330;52.210;21.174;2022-11-06T06:26:49;4.70;99.90
18408;DHT22;9330;52.210;21.174;2022-11-06T06:29:16;4.80;99.90
18408;DHT22;9330;52.210;21.174;2022-11-06T06:31:43;4.80;99.90
18408;DHT22;9330;52.210;21.174;2022-11-06T06:34:10;4.90;99.90
18408;DHT22;9330;52.210;21.174;2022-11-06T06:36:37;4.80;99.90
18408;DHT22;9330;52.210;21.174;2022-11-06T06:39:04;5.10;99.90
18408;DHT22;9330;52.210;21.174;2022-11-06T06:41:30;5.10;99.90
18408;DHT22;9330;52.210;21.174;2022-11-06T06:43:59;5.20;99.90
18408;DHT22;9330;52.210;21.174;2022-11-06T06:46:26;5.30;99.90
18408;DHT22;9330;52.210;21.174;2022-11-06T06:48:52;5.30;99.90
18408;DHT22;9330;52.210;21.174;2022-11-06T06:51:19;5.40;99.90
18408;DHT22;9330;52.210;21.174;2022-11-06T06:53:46;5.50;99.90
18408;DHT22;9330;52.210;21.174;2022-11-06T06:56:13;5.40;99.90
18408;DHT22;9330;52.210;21.174;2022-11-06T06:58:40;5.50;99.90
18408;DHT22;9330;52.210;21.174;2022-11-06T07:01:09;5.50;99.90
18408;DHT22;9330;52.210;21.174;2022-11-06T07:03:36;5.60;99.90
18408;DHT22;9330;52.210;21.174;2022-11-06T07:06:04;5.70;99.90
18408;DHT22;9330;52.210;21.174;2022-11-06T07:08:32;5.70;99.90
18408;DHT22;9330;52.210;21.174;2022-11-06T07:11:00;5.70;99.90
18408;DHT22;9330;52.210;21.174;2022-11-06T07:13:27;5.70;99.90
18408;DHT22;9330;52.210;21.174;2022-11-06T07:15:54;5.70;99.90
18408;DHT22;9330;52.210;21.174;2022-11-06T07:18:22;5.80;99.90
18408;DHT22;9330;52.210;21.174;2022-11-06T07:20:49;5.80;99.90
18408;DHT22;9330;52.210;21.174;2022-11-06T07:23:16;5.80;99.90
18408;DHT22;9330;52.210;21.174;2022-11-06T07:25:43;5.80;99.90
18408;DHT22;9330;52.210;21.174;2022-11-06T07:28:10;5.80;99.90
18408;DHT22;9330;52.210;21.174;2022-11-06T07:30:37;5.90;99.90
18408;DHT22;9330;52.210;21.174;2022-11-06T07:33:04;6.00;99.90
18408;DHT22;9330;52.210;21.174;2022-11-06T07:35:33;5.90;99.90
18408;DHT22;9330;52.210;21.174;2022-11-06T07:38:02;6.00;99.90
18408;DHT22;9330;52.210;21.174;2022-11-06T07:40:30;6.10;99.90
18408;DHT22;9330;52.210;21.174;2022-11-06T07:43:02;6.10;99.90
18408;DHT22;9330;52.210;21.174;2022-11-06T07:45:29;6.10;99.90
18408;DHT22;9330;52.210;21.174;2022-11-06T07:47:56;6.10;99.90
18408;DHT22;9330;52.210;21.174;2022-11-06T07:50:23;6.20;99.90
18408;DHT22;9330;52.210;21.174;2022-11-06T07:52:51;6.20;99.90
18408;DHT22;9330;52.210;21.174;2022-11-06T07:55:18;6.20;99.90
18408;DHT22;9330;52.210;21.174;2022-11-06T07:57:45;6.30;99.90
18408;DHT22;9330;52.210;21.174;2022-11-06T08:00:13;6.30;99.90
18408;DHT22;9330;52.210;21.174;2022-11-06T08:02:40;6.30;99.90
18408;DHT22;9330;52.210;21.174;2022-11-06T08:05:07;6.40;99.90
18408;DHT22;9330;52.210;21.174;2022-11-06T08:07:34;6.40;99.90
18408;DHT22;9330;52.210;21.174;2022-11-06T08:10:03;6.50;99.90
18408;DHT22;9330;52.210;21.174;2022-11-06T08:12:30;6.50;99.90
18408;DHT22;9330;52.210;21.174;2022-11-06T08:14:57;6.50;99.90
18408;DHT22;9330;52.210;21.174;2022-11-06T08:17:24;6.60;99.90
18408;DHT22;9330;52.210;21.174;2022-11-06T08:19:51;6.60;99.90
18408;DHT22;9330;52.210;21.174;2022-11-06T08:22:18;6.60;99.90
18408;DHT22;9330;52.210;21.174;2022-11-06T08:24:45;6.50;99.90
18408;DHT22;9330;52.210;21.174;2022-11-06T08:27:13;6.40;99.90
18408;DHT22;9330;52.210;21.174;2022-11-06T08:29:40;6.50;99.90
18408;DHT22;9330;52.210;21.174;2022-11-06T08:32:07;6.50;99.90
18408;DHT22;9330;52.210;21.174;2022-11-06T08:34:34;6.60;99.90
18408;DHT22;9330;52.210;21.174;2022-11-06T08:37:01;6.60;99.90
18408;DHT22;9330;52.210;21.174;2022-11-06T08:39:28;6.60;99.90
18408;DHT22;9330;52.210;21.174;2022-11-06T08:41:55;6.60;99.90
18408;DHT22;9330;52.210;21.174;2022-11-06T08:44:23;6.70;99.90
18408;DHT22;9330;52.210;21.174;2022-11-06T08:46:50;6.70;99.90
18408;DHT22;9330;52.210;21.174;2022-11-06T08:49:17;6.80;99.90
18408;DHT22;9330;52.210;21.174;2022-11-06T08:51:44;6.70;99.90
18408;DHT22;9330;52.210;21.174;2022-11-06T08:54:11;6.70;99.90
18408;DHT22;9330;52.210;21.174;2022-11-06T08:56:38;6.80;99.90
18408;DHT22;9330;52.210;21.174;2022-11-06T08:59:05;6.80;99.90
18408;DHT22;9330;52.210;21.174;2022-11-06T09:01:34;6.80;99.90
18408;DHT22;9330;52.210;21.174;2022-11-06T09:04:00;6.90;99.90
18408;DHT22;9330;52.210;21.174;2022-11-06T09:06:27;7.00;99.90
18408;DHT22;9330;52.210;21.174;2022-11-06T09:08:55;7.00;99.90
18408;DHT22;9330;52.210;21.174;2022-11-06T09:11:22;7.00;99.90
18408;DHT22;9330;52.210;21.174;2022-11-06T09:13:49;7.00;99.90
18408;DHT22;9330;52.210;21.174;2022-11-06T09:16:16;7.00;99.90
18408;DHT22;9330;52.210;21.174;2022-11-06T09:18:44;7.00;99.90
18408;DHT22;9330;52.210;21.174;2022-11-06T09:21:11;7.00;99.90
18408;DHT22;9330;52.210;21.174;2022-11-06T09:23:38;7.00;99.90
18408;DHT22;9330;52.210;21.174;2022-11-06T09:26:05;7.00;99.90
18408;DHT22;9330;52.210;21.174;2022-11-06T09:28:32;7.00;99.90
18408;DHT22;9330;52.210;21.174;2022-11-06T09:31:00;7.00;99.90
18408;DHT22;9330;52.210;21.174;2022-11-06T09:33:27;7.00;99.90
18408;DHT22;9330;52.210;21.174;2022-11-06T09:35:55;7.10;99.90
18408;DHT22;9330;52.210;21.174;2022-11-06T09:38:22;7.10;99.90
18408;DHT22;9330;52.210;21.174;2022-11-06T09:40:52;7.10;99.90
18408;DHT22;9330;52.210;21.174;2022-11-06T09:43:25;7.20;99.90
18408;DHT22;9330;52.210;21.174;2022-11-06T09:45:55;7.10;99.90
18408;DHT22;9330;52.210;21.174;2022-11-06T09:48:25;7.20;99.90
18408;DHT22;9330;52.210;21.174;2022-11-06T09:50:58;7.20;99.90
18408;DHT22;9330;52.210;21.174;2022-11-06T09:53:32;7.20;99.90
18408;DHT22;9330;52.210;21.174;2022-11-06T09:56:02;7.20;99.90
18408;DHT22;9330;52.210;21.174;2022-11-06T09:58:32;7.10;99.90
18408;DHT22;9330;52.210;21.174;2022-11-06T10:01:09;7.20;99.90
18408;DHT22;9330;52.210;21.174;2022-11-06T10:03:40;7.20;99.90
18408;DHT22;9330;52.210;21.174;2022-11-06T10:06:11;7.20;99.90
18408;DHT22;9330;52.210;21.174;2022-11-06T10:08:41;7.30;99.90
18408;DHT22;9330;52.210;21.174;2022-11-06T10:11:24;7.30;99.90
18408;DHT22;9330;52.210;21.174;2022-11-06T10:13:57;7.30;99.90
18408;DHT22;9330;52.210;21.174;2022-11-06T10:16:33;7.40;99.90
18408;DHT22;9330;52.210;21.174;2022-11-06T10:19:10;7.40;99.90
18408;DHT22;9330;52.210;21.174;2022-11-06T10:21:47;7.40;99.90
18408;DHT22;9330;52.210;21.174;2022-11-06T10:24:21;7.40;99.90
18408;DHT22;9330;52.210;21.174;2022-11-06T10:26:51;7.40;99.90
18408;DHT22;9330;52.210;21.174;2022-11-06T10:29:44;7.50;99.90
18408;DHT22;9330;52.210;21.174;2022-11-06T10:32:34;7.50;99.90
18408;DHT22;9330;52.210;21.174;2022-11-06T10:35:11;7.50;99.90
18408;DHT22;9330;52.210;21.174;2022-11-06T10:37:45;7.50;99.90
18408;DHT22;9330;52.210;21.174;2022-11-06T10:40:16;7.40;99.90
18408;DHT22;9330;52.210;21.174;2022-11-06T10:42:47;7.50;99.90
18408;DHT22;9330;52.210;21.174;2022-11-06T10:45:16;7.50;99.90
18408;DHT22;9330;52.210;21.174;2022-11-06T10:47:47;7.50;99.90
18408;DHT22;9330;52.210;21.174;2022-11-06T10:50:17;7.50;99.90
18408;DHT22;9330;52.210;21.174;2022-11-06T10:52:50;7.60;99.90
18408;DHT22;9330;52.210;21.174;2022-11-06T10:58:20;7.70;99.90
18408;DHT22;9330;52.210;21.174;2022-11-06T11:00:48;7.80;99.90
18408;DHT22;9330;52.210;21.174;2022-11-06T11:03:21;7.90;99.90
18408;DHT22;9330;52.210;21.174;2022-11-06T11:05:49;7.90;99.90
18408;DHT22;9330;52.210;21.174;2022-11-06T11:08:35;7.90;99.90
18408;DHT22;9330;52.210;21.174;2022-11-06T11:11:04;8.00;99.90
18408;DHT22;9330;52.210;21.174;2022-11-06T11:13:32;8.00;99.90
18408;DHT22;9330;52.210;21.174;2022-11-06T11:16:01;8.00;99.90
18408;DHT22;9330;52.210;21.174;2022-11-06T11:18:28;8.10;99.90
18408;DHT22;9330;52.210;21.174;2022-11-06T11:21:12;8.20;99.90
18408;DHT22;9330;52.210;21.174;2022-11-06T11:23:42;8.30;99.90
18408;DHT22;9330;52.210;21.174;2022-11-06T11:26:21;8.50;99.90
18408;DHT22;9330;52.210;21.174;2022-11-06T11:28:52;8.60;99.90
18408;DHT22;9330;52.210;21.174;2022-11-06T11:31:26;8.60;99.90
18408;DHT22;9330;52.210;21.174;2022-11-06T11:33:56;8.70;99.90
18408;DHT22;9330;52.210;21.174;2022-11-06T11:36:23;8.60;99.90
18408;DHT22;9330;52.210;21.174;2022-11-06T11:38:52;8.50;99.90
18408;DHT22;9330;52.210;21.174;2022-11-06T11:41:23;8.50;99.90
18408;DHT22;9330;52.210;21.174;2022-11-06T11:44:03;8.40;99.90
18408;DHT22;9330;52.210;21.174;2022-11-06T11:46:31;8.30;99.90
18408;DHT22;9330;52.210;21.174;2022-11-06T11:48:59;8.30;99.90
18408;DHT22;9330;52.210;21.174;2022-11-06T11:51:30;8.30;99.90
18408;DHT22;9330;52.210;21.174;2022-11-06T11:54:02;8.30;99.90
18408;DHT22;9330;52.210;21.174;2022-11-06T11:56:30;8.40;99.90
18408;DHT22;9330;52.210;21.174;2022-11-06T11:58:59;8.40;99.90
18408;DHT22;9330;52.210;21.174;2022-11-06T12:01:35;8.40;99.90
18408;DHT22;9330;52.210;21.174;2022-11-06T12:04:19;8.50;99.90
18408;DHT22;9330;52.210;21.174;2022-11-06T12:06:56;8.40;99.90
18408;DHT22;9330;52.210;21.174;2022-11-06T12:09:25;8.50;99.90
18408;DHT22;9330;52.210;21.174;2022-11-06T12:11:54;8.40;99.90
18408;DHT22;9330;52.210;21.174;2022-11-06T12:14:32;8.50;99.90
18408;DHT22;9330;52.210;21.174;2022-11-06T12:17:16;8.50;99.90
18408;DHT22;9330;52.210;21.174;2022-11-06T12:19:48;8.50;99.90
18408;DHT22;9330;52.210;21.174;2022-11-06T12:22:21;8.50;99.90
18408;DHT22;9330;52.210;21.174;2022-11-06T12:24:53;8.50;99.90
18408;DHT22;9330;52.210;21.174;2022-11-06T12:27:24;8.50;99.90
18408;DHT22;9330;52.210;21.174;2022-11-06T12:30:01;8.50;99.90
18408;DHT22;9330;52.210;21.174;2022-11-06T12:32:40;8.40;99.90
18408;DHT22;9330;52.210;21.174;2022-11-06T12:35:16;8.50;99.90
18408;DHT22;9330;52.210;21.174;2022-11-06T12:37:54;8.50;99.90
18408;DHT22;9330;52.210;21.174;2022-11-06T12:40:28;8.50;99.90
18408;DHT22;9330;52.210;21.174;2022-11-06T12:43:01;8.50;99.90
18408;DHT22;9330;52.210;21.174;2022-11-06T12:45:37;8.50;99.90
18408;DHT22;9330;52.210;21.174;2022-11-06T12:48:15;8.50;99.90
18408;DHT22;9330;52.210;21.174;2022-11-06T12:50:51;8.50;99.90
18408;DHT22;9330;52.210;21.174;2022-11-06T12:53:33;8.50;99.90
18408;DHT22;9330;52.210;21.174;2022-11-06T12:56:11;8.50;99.90
18408;DHT22;9330;52.210;21.174;2022-11-06T12:59:00;8.50;99.90
18408;DHT22;9330;52.210;21.174;2022-11-06T13:01:39;8.50;99.90
18408;DHT22;9330;52.210;21.174;2022-11-06T13:04:26;8.50;99.90
18408;DHT22;9330;52.210;21.174;2022-11-06T13:07:25;8.50;99.90
18408;DHT22;9330;52.210;21.174;2022-11-06T13:10:06;8.60;99.90
18408;DHT22;9330;52.210;21.174;2022-11-06T13:12:42;8.50;99.90
18408;DHT22;9330;52.210;21.174;2022-11-06T13:15:22;8.60;99.90
18408;DHT22;9330;52.210;21.174;2022-11-06T13:17:54;8.60;99.90
18408;DHT22;9330;52.210;21.174;2022-11-06T13:20:26;8.60;99.90
18408;DHT22;9330;52.210;21.174;2022-11-06T13:22:59;8.60;99.90
18408;DHT22;9330;52.210;21.174;2022-11-06T13:25:34;8.60;99.90
18408;DHT22;9330;52.210;21.174;2022-11-06T13:28:18;8.60;99.90
18408;DHT22;9330;52.210;21.174;2022-11-06T13:30:49;8.60;99.90
18408;DHT22;9330;52.210;21.174;2022-11-06T13:33:21;8.50;99.90
18408;DHT22;9330;52.210;21.174;2022-11-06T13:35:50;8.50;99.90
18408;DHT22;9330;52.210;21.174;2022-11-06T13:38:22;8.60;99.90
18408;DHT22;9330;52.210;21.174;2022-11-06T13:40:52;8.60;99.90
18408;DHT22;9330;52.210;21.174;2022-11-06T13:43:25;8.60;99.90
18408;DHT22;9330;52.210;21.174;2022-11-06T13:46:00;8.50;99.90
18408;DHT22;9330;52.210;21.174;2022-11-06T13:48:35;8.60;99.90
18408;DHT22;9330;52.210;21.174;2022-11-06T13:51:10;8.50;99.90
18408;DHT22;9330;52.210;21.174;2022-11-06T13:53:43;8.50;99.90
18408;DHT22;9330;52.210;21.174;2022-11-06T13:56:26;8.50;99.90
18408;DHT22;9330;52.210;21.174;2022-11-06T13:59:19;8.50;99.90
18408;DHT22;9330;52.210;21.174;2022-11-06T14:01:57;8.40;99.90
18408;DHT22;9330;52.210;21.174;2022-11-06T14:04:38;8.40;99.90
18408;DHT22;9330;52.210;21.174;2022-11-06T14:07:09;8.40;99.90
18408;DHT22;9330;52.210;21.174;2022-11-06T14:09:41;8.40;99.90
18408;DHT22;9330;52.210;21.174;2022-11-06T14:12:14;8.40;99.90
18408;DHT22;9330;52.210;21.174;2022-11-06T14:14:43;8.30;99.90
18408;DHT22;9330;52.210;21.174;2022-11-06T14:17:17;8.30;99.90
18408;DHT22;9330;52.210;21.174;2022-11-06T14:20:00;8.30;99.90
18408;DHT22;9330;52.210;21.174;2022-11-06T14:22:29;8.30;99.90
18408;DHT22;9330;52.210;21.174;2022-11-06T14:24:57;8.20;99.90
18408;DHT22;9330;52.210;21.174;2022-11-06T14:28:02;8.20;99.90
18408;DHT22;9330;52.210;21.174;2022-11-06T14:30:40;8.10;99.90
18408;DHT22;9330;52.210;21.174;2022-11-06T14:33:10;8.10;99.90
18408;DHT22;9330;52.210;21.174;2022-11-06T14:35:52;8.10;99.90
18408;DHT22;9330;52.210;21.174;2022-11-06T14:38:37;8.00;99.90
18408;DHT22;9330;52.210;21.174;2022-11-06T14:44:23;7.80;99.90
18408;DHT22;9330;52.210;21.174;2022-11-06T14:46:55;7.70;99.90
18408;DHT22;9330;52.210;21.174;2022-11-06T14:49:32;7.60;99.90
18408;DHT22;9330;52.210;21.174;2022-11-06T14:52:03;7.50;99.90
18408;DHT22;9330;52.210;21.174;2022-11-06T14:54:32;7.40;99.90
18408;DHT22;9330;52.210;21.174;2022-11-06T14:57:01;7.40;99.90
18408;DHT22;9330;52.210;21.174;2022-11-06T14:59:32;7.30;99.90
18408;DHT22;9330;52.210;21.174;2022-11-06T15:02:03;7.20;99.90
18408;DHT22;9330;52.210;21.174;2022-11-06T15:04:34;7.10;99.90
18408;DHT22;9330;52.210;21.174;2022-11-06T15:07:12;7.00;99.90
18408;DHT22;9330;52.210;21.174;2022-11-06T15:09:50;6.90;99.90
18408;DHT22;9330;52.210;21.174;2022-11-06T15:12:17;6.80;99.90
18408;DHT22;9330;52.210;21.174;2022-11-06T15:15:00;6.80;99.90
18408;DHT22;9330;52.210;21.174;2022-11-06T15:17:32;6.70;99.90
18408;DHT22;9330;52.210;21.174;2022-11-06T15:20:23;6.70;99.90
18408;DHT22;9330;52.210;21.174;2022-11-06T15:25:48;6.50;99.90
18408;DHT22;9330;52.210;21.174;2022-11-06T15:28:19;6.40;99.90
18408;DHT22;9330;52.210;21.174;2022-11-06T15:30:49;6.30;99.90
18408;DHT22;9330;52.210;21.174;2022-11-06T15:33:30;6.20;99.90
18408;DHT22;9330;52.210;21.174;2022-11-06T15:36:02;6.20;99.90
18408;DHT22;9330;52.210;21.174;2022-11-06T15:38:37;6.10;99.90
18408;DHT22;9330;52.210;21.174;2022-11-06T15:41:05;6.10;99.90
18408;DHT22;9330;52.210;21.174;2022-11-06T15:43:33;6.10;99.90
18408;DHT22;9330;52.210;21.174;2022-11-06T15:46:04;6.00;99.90
18408;DHT22;9330;52.210;21.174;2022-11-06T15:48:33;5.90;99.90
18408;DHT22;9330;52.210;21.174;2022-11-06T15:51:00;5.80;99.90
18408;DHT22;9330;52.210;21.174;2022-11-06T15:53:28;5.90;99.90
18408;DHT22;9330;52.210;21.174;2022-11-06T15:55:59;5.80;99.90
18408;DHT22;9330;52.210;21.174;2022-11-06T15:58:28;5.80;99.90
18408;DHT22;9330;52.210;21.174;2022-11-06T16:00:56;5.70;99.90
18408;DHT22;9330;52.210;21.174;2022-11-06T16:03:25;5.60;99.90
18408;DHT22;9330;52.210;21.174;2022-11-06T16:05:55;5.60;99.90
18408;DHT22;9330;52.210;21.174;2022-11-06T16:08:25;5.50;99.90
18408;DHT22;9330;52.210;21.174;2022-11-06T16:10:53;5.50;99.90
18408;DHT22;9330;52.210;21.174;2022-11-06T16:13:22;5.40;99.90
18408;DHT22;9330;52.210;21.174;2022-11-06T16:15:52;5.30;99.90
18408;DHT22;9330;52.210;21.174;2022-11-06T16:18:23;5.30;99.90
18408;DHT22;9330;52.210;21.174;2022-11-06T16:20:54;5.20;99.90
18408;DHT22;9330;52.210;21.174;2022-11-06T16:23:24;5.20;99.90